createdAt,value
2016-05-31T00:00:39.328Z,0
2016-05-31T00:01:53.536Z,0
2016-05-31T00:02:53.555Z,0
2016-05-31T00:05:39.294Z,0
2016-05-31T00:06:53.674Z,0
2016-05-31T00:07:40.205Z,0
2016-05-31T00:08:39.396Z,0
2016-05-31T00:09:53.730Z,0
2016-05-31T00:10:39.574Z,0
2016-05-31T00:11:53.782Z,0
2016-05-31T00:12:39.610Z,0
2016-05-31T00:13:39.643Z,0
2016-05-31T00:14:39.662Z,0
2016-05-31T00:15:39.540Z,0
2016-05-31T00:16:39.558Z,0
2016-05-31T00:17:39.748Z,0
2016-05-31T00:18:39.766Z,0
2016-05-31T00:19:53.976Z,0
2016-05-31T00:20:39.819Z,0
2016-05-31T00:21:39.853Z,0
2016-05-31T00:23:39.951Z,0
2016-05-31T00:25:54.163Z,0
2016-05-31T00:26:39.959Z,0
2016-05-31T00:27:39.994Z,0
2016-05-31T00:28:40.011Z,0
2016-05-31T00:29:40.062Z,0
2016-05-31T00:30:40.064Z,0
2016-05-31T00:31:54.272Z,0
2016-05-31T00:32:40.100Z,0
2016-05-31T00:33:40.135Z,0
2016-05-31T00:35:40.188Z,0
2016-05-31T00:37:40.302Z,0
2016-05-31T00:38:40.101Z,0
2016-05-31T00:39:40.277Z,0
2016-05-31T00:40:40.310Z,0
2016-05-31T00:41:54.502Z,0
2016-05-31T00:42:40.049Z,0
2016-05-31T00:43:40.380Z,0
2016-05-31T00:44:40.399Z,0
2016-05-31T00:45:40.120Z,0
2016-05-31T00:46:54.485Z,0
2016-05-31T00:47:40.313Z,0
2016-05-31T00:48:40.504Z,0
2016-05-31T00:49:40.522Z,0
2016-05-31T00:50:40.540Z,0
2016-05-31T00:51:54.765Z,0
2016-05-31T00:52:40.468Z,0
2016-05-31T00:53:40.626Z,0
2016-05-31T00:55:40.506Z,0
2016-05-31T00:56:40.697Z,0
2016-05-31T00:57:54.905Z,0
2016-05-31T00:58:40.749Z,0
2016-05-31T00:59:40.783Z,0
2016-05-31T01:00:40.801Z,0
2016-05-31T01:01:40.819Z,0
2016-05-31T01:02:55.028Z,0
2016-05-31T01:03:40.700Z,0
2016-05-31T01:04:40.906Z,0
2016-05-31T01:05:40.924Z,0
2016-05-31T01:06:55.133Z,0
2016-05-31T01:07:41.383Z,0
2016-05-31T01:08:55.185Z,0
2016-05-31T01:09:55.219Z,0
2016-05-31T01:10:40.875Z,0
2016-05-31T01:11:40.893Z,0
2016-05-31T01:12:55.274Z,0
2016-05-31T01:13:41.118Z,0
2016-05-31T01:14:41.135Z,0
2016-05-31T01:15:41.154Z,0
2016-05-31T01:16:41.188Z,0
2016-05-31T01:17:41.206Z,0
2016-05-31T01:18:41.084Z,0
2016-05-31T01:19:55.448Z,0
2016-05-31T01:20:41.276Z,0
2016-05-31T01:21:41.154Z,0
2016-05-31T01:23:41.409Z,0
2016-05-31T01:24:41.460Z,0
2016-05-31T01:25:41.259Z,0
2016-05-31T01:26:41.434Z,0
2016-05-31T01:27:55.658Z,0
2016-05-31T01:28:41.330Z,0
2016-05-31T01:29:55.539Z,0
2016-05-31T01:30:41.539Z,0
2016-05-31T01:31:55.591Z,0
2016-05-31T01:32:41.434Z,0
2016-05-31T01:33:55.784Z,0
2016-05-31T01:34:41.643Z,0
2016-05-31T01:35:41.661Z,0
2016-05-31T01:36:41.507Z,0
2016-05-31T01:37:41.886Z,0
2016-05-31T01:38:56.297Z,0
2016-05-31T01:39:41.750Z,0
2016-05-31T01:40:41.612Z,0
2016-05-31T01:41:41.818Z,0
2016-05-31T01:42:41.820Z,0
2016-05-31T01:44:56.047Z,0
2016-05-31T01:45:41.735Z,0
2016-05-31T01:46:41.753Z,0
2016-05-31T01:47:41.943Z,0
2016-05-31T01:48:41.977Z,0
2016-05-31T01:49:56.170Z,0
2016-05-31T01:50:56.204Z,0
2016-05-31T01:51:42.048Z,0
2016-05-31T01:52:56.131Z,0
2016-05-31T01:53:42.381Z,0
2016-05-31T01:54:42.103Z,0
2016-05-31T01:55:42.137Z,0
2016-05-31T01:56:56.345Z,0
2016-05-31T01:57:42.204Z,0
2016-05-31T01:58:42.207Z,0
2016-05-31T01:59:42.225Z,0
2016-05-31T02:00:56.434Z,0
2016-05-31T02:01:42.262Z,0
2016-05-31T02:02:42.297Z,0
2016-05-31T02:03:42.330Z,0
2016-05-31T02:04:42.036Z,0
2016-05-31T02:05:42.382Z,0
2016-05-31T02:06:42.261Z,0
2016-05-31T02:07:42.138Z,4
2016-05-31T02:08:56.596Z,4
2016-05-31T02:09:42.315Z,4
2016-05-31T02:10:42.489Z,4
2016-05-31T02:12:42.386Z,4
2016-05-31T02:13:42.576Z,4
2016-05-31T02:14:42.438Z,4
2016-05-31T02:15:42.457Z,4
2016-05-31T02:16:56.821Z,8
2016-05-31T02:17:42.665Z,8
2016-05-31T02:18:42.527Z,8
2016-05-31T02:19:42.561Z,8
2016-05-31T02:20:42.735Z,8
2016-05-31T02:21:42.754Z,12
2016-05-31T02:22:42.912Z,12
2016-05-31T02:23:42.665Z,12
2016-05-31T02:24:57.077Z,16
2016-05-31T02:25:42.859Z,16
2016-05-31T02:26:42.877Z,20
2016-05-31T02:27:42.910Z,24
2016-05-31T02:28:42.945Z,24
2016-05-31T02:29:42.963Z,28
2016-05-31T02:30:42.981Z,32
2016-05-31T02:31:43.000Z,36
2016-05-31T02:32:57.208Z,44
2016-05-31T02:33:43.067Z,44
2016-05-31T02:34:43.086Z,52
2016-05-31T02:35:43.104Z,52
2016-05-31T02:36:43.122Z,60
2016-05-31T02:37:43.156Z,60
2016-05-31T02:38:43.174Z,60
2016-05-31T02:39:43.192Z,60
2016-05-31T02:40:43.227Z,60
2016-05-31T02:41:43.104Z,64
2016-05-31T02:42:43.263Z,60
2016-05-31T02:43:43.297Z,64
2016-05-31T02:44:57.505Z,76
2016-05-31T02:45:43.365Z,80
2016-05-31T02:46:43.211Z,92
2016-05-31T02:48:43.420Z,104
2016-05-31T02:49:57.629Z,108
2016-05-31T02:50:43.301Z,112
2016-05-31T02:51:57.524Z,120
2016-05-31T02:52:43.962Z,124
2016-05-31T02:53:57.561Z,136
2016-05-31T02:54:43.561Z,144
2016-05-31T02:56:57.788Z,164
2016-05-31T02:58:57.840Z,192
2016-05-31T02:59:43.684Z,196
2016-05-31T03:00:43.733Z,204
2016-05-31T03:01:43.737Z,212
2016-05-31T03:02:43.770Z,220
2016-05-31T03:03:43.617Z,236
2016-05-31T03:04:43.806Z,244
2016-05-31T03:05:43.825Z,256
2016-05-31T03:06:43.859Z,260
2016-05-31T03:07:45.189Z,272
2016-05-31T03:08:44.084Z,280
2016-05-31T03:09:43.930Z,288
2016-05-31T03:10:43.808Z,304
2016-05-31T03:11:58.171Z,332
2016-05-31T03:12:43.999Z,360
2016-05-31T03:14:58.227Z,412
2016-05-31T03:15:44.071Z,416
2016-05-31T03:16:44.089Z,412
2016-05-31T03:17:44.123Z,420
2016-05-31T03:18:44.141Z,424
2016-05-31T03:19:58.349Z,416
2016-05-31T03:20:58.415Z,420
2016-05-31T03:21:44.055Z,420
2016-05-31T03:22:58.421Z,444
2016-05-31T03:23:45.327Z,448
2016-05-31T03:24:44.282Z,472
2016-05-31T03:25:44.316Z,472
2016-05-31T03:26:44.351Z,504
2016-05-31T03:27:44.196Z,532
2016-05-31T03:28:44.386Z,564
2016-05-31T03:29:58.595Z,592
2016-05-31T03:30:44.439Z,608
2016-05-31T03:31:44.473Z,616
2016-05-31T03:32:44.476Z,608
2016-05-31T03:33:58.544Z,632
2016-05-31T03:34:44.528Z,660
2016-05-31T03:35:58.737Z,724
2016-05-31T03:36:44.581Z,772
2016-05-31T03:37:44.770Z,748
2016-05-31T03:38:44.555Z,716
2016-05-31T03:39:44.495Z,692
2016-05-31T03:40:44.513Z,716
2016-05-31T03:41:44.688Z,744
2016-05-31T03:42:44.721Z,772
2016-05-31T03:43:44.583Z,808
2016-05-31T03:45:44.791Z,896
2016-05-31T03:46:44.827Z,1000
2016-05-31T03:47:44.688Z,1084
2016-05-31T03:48:44.862Z,1152
2016-05-31T03:49:44.897Z,1208
2016-05-31T03:50:44.915Z,1272
2016-05-31T03:51:59.124Z,1412
2016-05-31T03:53:00.001Z,1536
2016-05-31T03:53:45.173Z,1616
2016-05-31T03:54:45.019Z,1700
2016-05-31T03:55:45.038Z,1764
2016-05-31T03:56:45.056Z,1844
2016-05-31T03:57:45.106Z,2004
2016-05-31T03:58:59.298Z,2184
2016-05-31T03:59:45.142Z,2228
2016-05-31T04:00:45.160Z,2184
2016-05-31T04:02:59.387Z,1972
2016-05-31T04:03:59.420Z,1980
2016-05-31T04:04:45.108Z,1996
2016-05-31T04:05:45.284Z,1908
2016-05-31T04:06:45.145Z,1884
2016-05-31T04:07:59.213Z,1932
2016-05-31T04:08:46.494Z,1896
2016-05-31T04:09:45.389Z,1824
2016-05-31T04:10:45.250Z,1676
2016-05-31T04:11:45.424Z,1596
2016-05-31T04:12:45.303Z,1492
2016-05-31T04:13:45.477Z,1456
2016-05-31T04:14:59.700Z,1484
2016-05-31T04:15:59.703Z,1488
2016-05-31T04:16:59.738Z,1492
2016-05-31T04:17:45.581Z,1480
2016-05-31T04:18:59.790Z,1420
2016-05-31T04:20:45.652Z,1376
2016-05-31T04:21:45.670Z,1408
2016-05-31T04:22:59.738Z,1444
2016-05-31T04:23:46.847Z,1476
2016-05-31T04:24:45.600Z,1536
2016-05-31T04:25:45.602Z,1556
2016-05-31T04:26:45.793Z,1544
2016-05-31T04:27:45.827Z,1528
2016-05-31T04:28:45.860Z,1596
2016-05-31T04:29:45.878Z,1720
2016-05-31T04:30:45.897Z,1844
2016-05-31T04:31:45.776Z,2192
2016-05-31T04:32:45.950Z,5040
2016-05-31T04:33:45.967Z,3928
2016-05-31T04:35:00.176Z,2780
2016-05-31T04:36:46.038Z,3644
2016-05-31T04:37:46.885Z,4884
2016-05-31T04:38:46.887Z,5160
2016-05-31T04:39:45.969Z,5452
2016-05-31T04:40:46.142Z,5624
2016-05-31T04:41:46.162Z,5204
2016-05-31T04:42:46.023Z,4108
2016-05-31T04:44:00.247Z,2180
2016-05-31T04:44:46.091Z,1928
2016-05-31T04:45:46.281Z,1764
2016-05-31T04:46:46.284Z,1928
2016-05-31T04:47:46.333Z,1764
2016-05-31T04:48:46.024Z,1644
2016-05-31T04:50:46.216Z,1708
2016-05-31T04:51:46.266Z,1468
2016-05-31T04:53:00.475Z,1384
2016-05-31T04:53:46.616Z,1388
2016-05-31T04:55:00.668Z,1472
2016-05-31T04:55:46.371Z,1500
2016-05-31T04:56:46.529Z,1464
2016-05-31T04:57:46.407Z,1500
2016-05-31T04:58:46.582Z,1708
2016-05-31T04:59:46.459Z,1528
2016-05-31T05:00:46.635Z,1736
2016-05-31T05:02:46.686Z,1752
2016-05-31T05:03:46.705Z,1776
2016-05-31T05:04:46.723Z,1580
2016-05-31T05:05:46.601Z,1416
2016-05-31T05:06:46.791Z,1404
2016-05-31T05:08:01.515Z,1448
2016-05-31T05:08:47.015Z,1512
2016-05-31T05:09:46.689Z,1680
2016-05-31T05:11:01.054Z,1876
2016-05-31T05:11:46.757Z,1928
2016-05-31T05:12:46.776Z,1984
2016-05-31T05:13:46.794Z,2076
2016-05-31T05:14:46.984Z,2112
2016-05-31T05:15:47.003Z,2180
2016-05-31T05:16:47.036Z,2224
2016-05-31T05:17:46.899Z,2344
2016-05-31T05:18:47.088Z,2560
2016-05-31T05:19:47.108Z,2476
2016-05-31T05:20:47.125Z,2316
2016-05-31T05:21:47.144Z,2220
2016-05-31T05:22:47.209Z,2124
2016-05-31T05:23:47.321Z,2068
2016-05-31T05:24:47.246Z,2068
2016-05-31T05:25:47.263Z,2032
2016-05-31T05:27:01.457Z,2048
2016-05-31T05:27:47.144Z,2064
2016-05-31T05:28:47.319Z,2044
2016-05-31T05:29:47.212Z,2092
2016-05-31T05:30:47.387Z,2216
2016-05-31T05:32:01.595Z,2420
2016-05-31T05:33:01.614Z,2660
2016-05-31T05:34:01.632Z,2760
2016-05-31T05:34:47.476Z,2844
2016-05-31T05:35:47.495Z,3060
2016-05-31T05:36:47.528Z,3260
2016-05-31T05:37:47.656Z,3248
2016-05-31T05:39:01.614Z,3296
2016-05-31T05:39:47.442Z,3420
2016-05-31T05:40:47.617Z,3732
2016-05-31T05:41:47.494Z,3980
2016-05-31T05:43:01.844Z,4100
2016-05-31T05:43:47.703Z,4408
2016-05-31T05:45:01.911Z,5644
2016-05-31T05:45:47.739Z,6548
2016-05-31T05:46:47.758Z,6744
2016-05-31T05:47:47.792Z,6200
2016-05-31T05:48:47.825Z,5984
2016-05-31T05:49:47.844Z,5756
2016-05-31T05:50:47.565Z,5708
2016-05-31T05:51:47.897Z,5480
2016-05-31T05:52:48.461Z,5192
2016-05-31T05:53:48.151Z,4928
2016-05-31T05:55:02.157Z,4644
2016-05-31T05:56:02.191Z,4660
2016-05-31T05:56:47.863Z,4820
2016-05-31T05:58:02.279Z,5564
2016-05-31T05:58:48.107Z,5736
2016-05-31T05:59:48.011Z,5808
2016-05-31T06:01:02.429Z,5908
2016-05-31T06:01:48.257Z,6240
2016-05-31T06:03:02.340Z,7200
2016-05-31T06:03:48.183Z,7124
2016-05-31T06:04:48.367Z,8752
2016-05-31T06:05:48.411Z,9456
2016-05-31T06:08:02.518Z,10120
2016-05-31T06:08:48.377Z,9164
2016-05-31T06:10:48.562Z,8428
2016-05-31T06:11:48.583Z,10672
2016-05-31T06:12:48.620Z,13500
2016-05-31T06:13:48.654Z,14712
2016-05-31T06:14:48.675Z,18560
2016-05-31T06:15:48.694Z,24960
2016-05-31T06:16:48.728Z,33568
2016-05-31T06:17:48.748Z,37696
2016-05-31T06:18:48.626Z,33696
2016-05-31T06:19:48.817Z,57888
2016-05-31T06:20:48.835Z,31488
2016-05-31T06:21:48.854Z,42144
2016-05-31T06:22:48.905Z,52192
2016-05-31T06:23:49.625Z,59168
2016-05-31T06:24:48.940Z,36800
2016-05-31T06:25:48.819Z,34112
2016-05-31T06:26:48.852Z,26144
2016-05-31T06:27:48.886Z,36544
2016-05-31T06:28:49.060Z,22208
2016-05-31T06:30:03.269Z,18880
2016-05-31T06:30:49.113Z,17600
2016-05-31T06:31:48.990Z,17120
2016-05-31T06:32:49.165Z,17440
2016-05-31T06:33:49.214Z,17120
2016-05-31T06:34:49.062Z,16928
2016-05-31T06:35:49.251Z,16304
2016-05-31T06:36:49.270Z,17184
2016-05-31T06:37:49.475Z,20448
2016-05-31T06:38:49.807Z,17728
2016-05-31T06:39:49.372Z,17568
2016-05-31T06:40:49.249Z,18944
2016-05-31T06:41:49.252Z,19552
2016-05-31T06:42:49.442Z,25792
2016-05-31T06:43:49.476Z,25376
2016-05-31T06:44:49.510Z,34560
2016-05-31T06:46:03.405Z,45184
2016-05-31T06:46:49.561Z,21952
2016-05-31T06:47:49.425Z,18816
2016-05-31T06:48:49.614Z,19392
2016-05-31T06:49:49.492Z,20256
2016-05-31T06:51:03.857Z,19520
2016-05-31T06:51:49.700Z,17824
2016-05-31T06:53:49.768Z,15880
2016-05-31T06:54:49.787Z,15896
2016-05-31T06:55:49.821Z,16220
2016-05-31T06:57:04.029Z,16800
2016-05-31T06:57:49.873Z,17376
2016-05-31T06:58:49.751Z,18016
2016-05-31T06:59:49.926Z,18112
2016-05-31T07:00:49.960Z,19520
2016-05-31T07:02:04.184Z,22976
2016-05-31T07:02:50.012Z,21376
2016-05-31T07:03:49.889Z,23712
2016-05-31T07:04:50.064Z,27488
2016-05-31T07:05:49.785Z,36576
2016-05-31T07:06:49.975Z,33248
2016-05-31T07:08:04.887Z,24224
2016-05-31T07:09:05.218Z,22752
2016-05-31T07:10:04.392Z,23904
2016-05-31T07:11:04.270Z,32640
2016-05-31T07:11:50.270Z,35328
2016-05-31T07:13:04.479Z,31520
2016-05-31T07:13:50.323Z,25088
2016-05-31T07:14:50.356Z,23616
2016-05-31T07:16:04.424Z,40576
2016-05-31T07:16:50.439Z,43808
2016-05-31T07:18:04.632Z,24800
2016-05-31T07:18:50.319Z,20672
2016-05-31T07:19:50.495Z,17152
2016-05-31T07:21:04.719Z,14220
2016-05-31T07:21:50.563Z,12608
2016-05-31T07:22:50.674Z,9424
2016-05-31T07:23:51.944Z,7964
2016-05-31T07:24:50.649Z,7244
2016-05-31T07:25:50.682Z,6776
2016-05-31T07:26:50.701Z,6468
2016-05-31T07:28:04.910Z,6156
2016-05-31T07:28:50.769Z,5964
2016-05-31T07:29:50.787Z,5632
2016-05-31T07:30:50.821Z,5300
2016-05-31T07:31:50.855Z,5040
2016-05-31T07:33:05.048Z,4824
2016-05-31T07:33:50.907Z,4756
2016-05-31T07:34:50.785Z,4696
2016-05-31T07:35:50.975Z,4704
2016-05-31T07:36:50.837Z,4776
2016-05-31T07:37:51.168Z,4880
2016-05-31T07:38:51.312Z,4980
2016-05-31T07:39:51.079Z,5084
2016-05-31T07:40:51.114Z,5224
2016-05-31T07:41:51.132Z,5384
2016-05-31T07:43:51.200Z,5904
2016-05-31T07:44:51.217Z,6236
2016-05-31T07:45:51.081Z,6660
2016-05-31T07:47:51.289Z,7716
2016-05-31T07:49:05.513Z,8496
2016-05-31T07:49:51.185Z,9084
2016-05-31T07:51:05.566Z,10400
2016-05-31T07:51:51.394Z,11604
2016-05-31T07:52:51.474Z,13932
2016-05-31T07:53:51.461Z,18304
2016-05-31T07:54:51.494Z,24320
2016-05-31T07:55:51.358Z,48928
2016-05-31T07:56:51.063Z,64160
2016-05-31T07:58:05.755Z,61984
2016-05-31T07:58:51.599Z,49440
2016-05-31T08:01:05.843Z,24736
2016-05-31T08:01:51.374Z,25952
2016-05-31T08:03:05.925Z,30464
2016-05-31T08:03:51.737Z,29088
2016-05-31T08:05:05.963Z,33152
2016-05-31T08:05:51.635Z,31392
2016-05-31T08:06:51.684Z,32256
2016-05-31T08:08:06.095Z,25856
2016-05-31T08:08:52.689Z,23456
2016-05-31T08:10:05.945Z,23872
2016-05-31T08:10:51.945Z,24576
2016-05-31T08:11:51.823Z,23904
2016-05-31T08:12:51.997Z,20640
2016-05-31T08:13:52.030Z,19552
2016-05-31T08:14:51.924Z,19296
2016-05-31T08:15:52.083Z,19104
2016-05-31T08:16:52.133Z,19168
2016-05-31T08:17:52.150Z,19040
2016-05-31T08:18:52.184Z,18304
2016-05-31T08:19:52.202Z,18688
2016-05-31T08:21:06.427Z,17792
2016-05-31T08:21:52.114Z,18976
2016-05-31T08:22:53.149Z,17792
2016-05-31T08:23:53.072Z,15124
2016-05-31T08:24:52.357Z,14888
2016-05-31T08:25:52.235Z,14832
2016-05-31T08:26:52.410Z,15032
2016-05-31T08:27:52.287Z,15396
2016-05-31T08:30:06.702Z,16356
2016-05-31T08:31:52.563Z,16992
2016-05-31T08:32:52.597Z,17280
2016-05-31T08:33:52.631Z,17408
2016-05-31T08:34:52.665Z,18016
2016-05-31T08:35:52.543Z,16456
2016-05-31T08:37:06.908Z,15904
2016-05-31T08:37:52.768Z,15724
2016-05-31T08:38:52.676Z,15396
2016-05-31T08:39:52.679Z,14536
2016-05-31T08:40:52.837Z,13700
2016-05-31T08:42:52.906Z,12408
2016-05-31T08:43:52.767Z,11960
2016-05-31T08:44:52.973Z,11792
2016-05-31T08:46:07.181Z,11764
2016-05-31T08:46:53.009Z,11596
2016-05-31T08:48:53.078Z,11588
2016-05-31T08:50:07.145Z,11740
2016-05-31T08:50:53.130Z,12012
2016-05-31T08:51:53.008Z,12448
2016-05-31T08:53:07.388Z,12840
2016-05-31T08:53:54.075Z,13176
2016-05-31T08:54:53.250Z,13604
2016-05-31T08:55:53.284Z,14172
2016-05-31T08:56:53.302Z,15308
2016-05-31T08:57:53.336Z,16776
2016-05-31T08:58:53.371Z,17024
2016-05-31T09:00:07.579Z,18080
2016-05-31T09:00:53.282Z,25984
2016-05-31T09:01:53.300Z,18368
2016-05-31T09:02:53.490Z,16260
2016-05-31T09:03:53.509Z,15580
2016-05-31T09:04:53.543Z,15420
2016-05-31T09:05:53.420Z,15624
2016-05-31T09:06:53.454Z,16304
2016-05-31T09:08:07.679Z,17632
2016-05-31T09:08:53.538Z,17632
2016-05-31T09:09:53.696Z,16324
2016-05-31T09:10:53.731Z,17312
2016-05-31T09:12:07.939Z,15636
2016-05-31T09:12:53.783Z,18304
2016-05-31T09:13:53.801Z,18656
2016-05-31T09:14:53.835Z,15820
2016-05-31T09:16:53.919Z,15524
2016-05-31T09:17:53.780Z,15056
2016-05-31T09:19:08.145Z,15480
2016-05-31T09:19:53.989Z,15892
2016-05-31T09:20:54.023Z,16448
2016-05-31T09:21:54.057Z,16692
2016-05-31T09:22:53.967Z,17184
2016-05-31T09:23:54.483Z,17312
2016-05-31T09:24:54.159Z,17216
2016-05-31T09:25:54.177Z,17056
2016-05-31T09:27:08.401Z,15700
2016-05-31T09:27:54.244Z,15520
2016-05-31T09:28:54.280Z,16168
2016-05-31T09:29:54.297Z,15672
2016-05-31T09:31:54.365Z,15536
2016-05-31T09:32:54.384Z,17280
2016-05-31T09:33:54.417Z,20064
2016-05-31T09:34:54.311Z,19680
2016-05-31T09:35:54.485Z,15488
2016-05-31T09:36:54.518Z,14860
2016-05-31T09:37:54.413Z,13264
2016-05-31T09:38:54.447Z,12900
2016-05-31T09:40:08.796Z,13260
2016-05-31T09:40:54.640Z,13456
2016-05-31T09:41:54.673Z,14032
2016-05-31T09:42:54.551Z,14436
2016-05-31T09:44:08.915Z,17664
2016-05-31T09:44:54.759Z,20288
2016-05-31T09:45:54.637Z,22720
2016-05-31T09:46:54.828Z,21120
2016-05-31T09:47:54.861Z,18752
2016-05-31T09:48:54.723Z,14728
2016-05-31T09:49:54.758Z,13616
2016-05-31T09:50:54.948Z,13288
2016-05-31T09:51:54.981Z,12600
2016-05-31T09:53:09.236Z,12084
2016-05-31T09:53:55.049Z,11756
2016-05-31T09:54:54.911Z,11436
2016-05-31T09:56:09.292Z,11292
2016-05-31T09:57:55.169Z,11180
2016-05-31T09:58:55.203Z,11232
2016-05-31T09:59:55.237Z,11312
2016-05-31T10:00:55.272Z,11424
2016-05-31T10:02:09.480Z,12016
2016-05-31T10:03:09.341Z,12072
2016-05-31T10:04:09.532Z,11556
2016-05-31T10:04:55.079Z,11988
2016-05-31T10:06:09.600Z,11188
2016-05-31T10:07:56.352Z,11204
2016-05-31T10:09:09.545Z,11212
2016-05-31T10:09:55.529Z,11160
2016-05-31T10:10:55.408Z,11072
2016-05-31T10:12:09.773Z,10996
2016-05-31T10:12:55.460Z,11008
2016-05-31T10:13:55.509Z,11120
2016-05-31T10:15:09.717Z,11384
2016-05-31T10:15:55.717Z,11464
2016-05-31T10:16:55.752Z,11424
2016-05-31T10:17:55.770Z,11316
2016-05-31T10:18:55.820Z,11472
2016-05-31T10:20:09.717Z,11420
2016-05-31T10:20:55.560Z,11504
2016-05-31T10:22:10.080Z,12156
2016-05-31T10:23:55.850Z,12560
2016-05-31T10:24:55.836Z,12368
2016-05-31T10:25:56.010Z,12452
2016-05-31T10:26:56.060Z,12584
2016-05-31T10:28:10.253Z,12924
2016-05-31T10:28:56.206Z,13232
2016-05-31T10:30:10.164Z,13852
2016-05-31T10:30:56.164Z,14212
2016-05-31T10:32:10.388Z,15208
2016-05-31T10:32:56.232Z,14600
2016-05-31T10:33:56.266Z,16288
2016-05-31T10:35:56.318Z,14548
2016-05-31T10:36:56.352Z,14052
2016-05-31T10:38:11.249Z,13996
2016-05-31T10:38:56.233Z,14248
2016-05-31T10:39:56.282Z,14144
2016-05-31T10:41:10.648Z,14176
2016-05-31T10:41:56.491Z,14268
2016-05-31T10:43:24.746Z,15880
2016-05-31T10:43:56.559Z,14704
2016-05-31T10:44:56.577Z,15448
2016-05-31T10:45:56.611Z,17344
2016-05-31T10:46:56.645Z,16228
2016-05-31T10:47:56.679Z,17600
2016-05-31T10:48:56.697Z,15640
2016-05-31T10:49:56.576Z,15408
2016-05-31T10:50:56.609Z,16436
2016-05-31T10:52:10.989Z,14928
2016-05-31T10:52:57.645Z,14852
2016-05-31T10:53:56.772Z,14620
2016-05-31T10:55:11.075Z,13972
2016-05-31T10:55:56.763Z,13800
2016-05-31T10:56:56.781Z,13804
2016-05-31T10:58:57.005Z,13644
2016-05-31T10:59:57.024Z,14300
2016-05-31T11:00:56.902Z,13976
2016-05-31T11:02:11.282Z,13264
2016-05-31T11:02:57.125Z,13208
2016-05-31T11:03:57.160Z,13336
2016-05-31T11:04:57.021Z,13328
2016-05-31T11:05:57.212Z,14912
2016-05-31T11:06:57.246Z,14052
2016-05-31T11:07:57.310Z,13268
2016-05-31T11:08:57.111Z,12980
2016-05-31T11:10:11.225Z,16008
2016-05-31T11:11:11.556Z,15048
2016-05-31T11:11:57.399Z,11952
2016-05-31T11:12:57.418Z,11056
2016-05-31T11:13:57.295Z,10612
2016-05-31T11:15:25.707Z,10764
2016-05-31T11:15:57.520Z,11352
2016-05-31T11:17:57.588Z,10888
2016-05-31T11:18:57.606Z,11324
2016-05-31T11:19:57.484Z,12288
2016-05-31T11:20:57.689Z,12764
2016-05-31T11:21:57.692Z,13016
2016-05-31T11:22:58.414Z,14936
2016-05-31T11:23:57.776Z,14064
2016-05-31T11:24:57.497Z,14668
2016-05-31T11:26:12.019Z,14576
2016-05-31T11:26:57.690Z,14716
2016-05-31T11:27:57.880Z,14476
2016-05-31T11:28:57.899Z,14308
2016-05-31T11:29:57.948Z,13972
2016-05-31T11:31:12.157Z,13668
2016-05-31T11:31:58.016Z,13400
2016-05-31T11:32:58.034Z,12416
2016-05-31T11:33:58.069Z,11884
2016-05-31T11:34:58.086Z,11844
2016-05-31T11:35:58.136Z,11968
2016-05-31T11:37:12.329Z,12456
2016-05-31T11:37:58.032Z,12368
2016-05-31T11:38:58.690Z,13280
2016-05-31T11:39:58.084Z,13516
2016-05-31T11:41:58.137Z,13672
2016-05-31T11:42:58.326Z,12212
2016-05-31T11:43:58.205Z,11592
2016-05-31T11:44:58.082Z,11236
2016-05-31T11:45:58.413Z,10980
2016-05-31T11:47:12.637Z,11184
2016-05-31T11:48:58.358Z,11384
2016-05-31T11:49:58.408Z,11428
2016-05-31T11:50:58.567Z,11016
2016-05-31T11:51:58.461Z,10856
2016-05-31T11:52:58.932Z,11048
2016-05-31T11:54:12.687Z,10764
2016-05-31T11:54:58.531Z,10496
2016-05-31T11:55:58.721Z,10248
2016-05-31T11:56:58.755Z,10120
2016-05-31T11:58:12.964Z,10184
2016-05-31T11:58:58.808Z,10152
2016-05-31T12:00:58.875Z,10444
2016-05-31T12:01:58.737Z,10956
2016-05-31T12:03:13.119Z,11472
2016-05-31T12:03:58.947Z,12868
2016-05-31T12:06:13.204Z,11648
2016-05-31T12:06:58.735Z,11724
2016-05-31T12:08:00.206Z,10856
2016-05-31T12:08:59.538Z,10268
2016-05-31T12:09:59.135Z,10060
2016-05-31T12:10:59.168Z,9444
2016-05-31T12:11:59.186Z,9136
2016-05-31T12:14:13.460Z,8632
2016-05-31T12:14:59.288Z,8576
2016-05-31T12:16:59.356Z,8680
2016-05-31T12:18:13.564Z,8952
2016-05-31T12:18:59.408Z,9024
2016-05-31T12:19:59.286Z,9624
2016-05-31T12:20:59.460Z,9548
2016-05-31T12:21:59.338Z,8896
2016-05-31T12:22:59.966Z,8508
2016-05-31T12:24:00.109Z,8168
2016-05-31T12:24:59.580Z,7980
2016-05-31T12:26:13.805Z,8184
2016-05-31T12:26:59.648Z,8584
2016-05-31T12:28:13.856Z,9312
2016-05-31T12:28:59.544Z,10132
2016-05-31T12:29:59.734Z,11652
2016-05-31T12:30:59.769Z,12556
2016-05-31T12:31:59.786Z,14396
2016-05-31T12:32:59.821Z,12548
2016-05-31T12:33:59.854Z,12064
2016-05-31T12:34:59.888Z,13400
2016-05-31T12:35:59.907Z,13512
2016-05-31T12:36:59.972Z,13176
2016-05-31T12:38:01.335Z,13036
2016-05-31T12:39:14.043Z,12104
2016-05-31T12:40:00.058Z,10996
2016-05-31T12:41:00.076Z,10616
2016-05-31T12:42:00.095Z,11564
2016-05-31T12:42:59.973Z,12100
2016-05-31T12:45:00.212Z,11876
2016-05-31T12:46:00.074Z,11164
2016-05-31T12:47:00.248Z,11272
2016-05-31T12:48:00.282Z,11568
2016-05-31T12:49:00.302Z,11680
2016-05-31T12:50:14.541Z,11584
2016-05-31T12:51:00.370Z,12668
2016-05-31T12:52:00.247Z,11512
2016-05-31T12:54:01.220Z,9992
2016-05-31T12:55:00.505Z,9924
2016-05-31T12:56:00.367Z,10092
2016-05-31T12:57:00.542Z,10640
2016-05-31T12:58:14.766Z,10728
2016-05-31T12:59:00.609Z,10792
2016-05-31T13:00:00.331Z,11012
2016-05-31T13:01:14.852Z,11036
2016-05-31T13:03:00.573Z,13024
2016-05-31T13:04:00.764Z,12796
2016-05-31T13:05:00.797Z,13904
2016-05-31T13:06:15.005Z,13948
2016-05-31T13:07:00.849Z,12100
2016-05-31T13:08:01.056Z,13096
2016-05-31T13:09:00.964Z,12952
2016-05-31T13:10:00.936Z,12320
2016-05-31T13:11:15.004Z,10212
2016-05-31T13:12:01.004Z,9172
2016-05-31T13:13:01.021Z,6820
2016-05-31T13:14:15.246Z,6044
2016-05-31T13:16:01.140Z,6100
2016-05-31T13:17:00.845Z,6200
2016-05-31T13:18:01.192Z,6352
2016-05-31T13:19:01.070Z,6496
2016-05-31T13:20:01.243Z,6612
2016-05-31T13:21:01.278Z,6824
2016-05-31T13:22:15.502Z,7080
2016-05-31T13:23:01.674Z,7220
2016-05-31T13:24:02.004Z,7360
2016-05-31T13:25:15.588Z,7524
2016-05-31T13:26:01.431Z,7632
2016-05-31T13:27:01.482Z,7812
2016-05-31T13:28:01.328Z,7988
2016-05-31T13:30:01.396Z,8304
2016-05-31T13:31:15.775Z,8420
2016-05-31T13:32:15.779Z,8472
2016-05-31T13:33:15.672Z,8488
2016-05-31T13:34:15.691Z,8504
2016-05-31T13:37:01.758Z,8504
2016-05-31T13:38:15.982Z,9576
2016-05-31T13:39:02.279Z,9632
2016-05-31T13:40:01.844Z,8828
2016-05-31T13:41:01.722Z,8984
2016-05-31T13:42:01.912Z,9248
2016-05-31T13:43:01.931Z,9612
2016-05-31T13:44:01.965Z,9948
2016-05-31T13:45:01.983Z,10040
2016-05-31T13:46:02.018Z,10004
2016-05-31T13:47:02.051Z,10100
2016-05-31T13:48:01.928Z,10464
2016-05-31T13:49:01.962Z,10548
2016-05-31T13:50:02.154Z,10748
2016-05-31T13:51:02.187Z,11080
2016-05-31T13:52:16.395Z,11256
2016-05-31T13:53:16.414Z,9848
2016-05-31T13:54:02.273Z,10676
2016-05-31T13:55:02.307Z,10340
2016-05-31T13:56:02.325Z,10044
2016-05-31T13:57:16.550Z,9796
2016-05-31T13:58:02.378Z,9848
2016-05-31T13:59:02.442Z,9880
2016-05-31T14:00:02.430Z,9876
2016-05-31T14:01:02.478Z,9940
2016-05-31T14:02:16.719Z,10860
2016-05-31T14:03:16.705Z,11460
2016-05-31T14:04:16.740Z,10528
2016-05-31T14:05:02.584Z,10632
2016-05-31T14:06:02.618Z,10604
2016-05-31T14:07:02.652Z,10980
2016-05-31T14:08:03.217Z,10896
2016-05-31T14:09:02.782Z,10816
2016-05-31T14:10:02.753Z,10468
2016-05-31T14:11:02.771Z,10204
2016-05-31T14:12:02.790Z,9864
2016-05-31T14:13:02.824Z,9500
2016-05-31T14:14:02.702Z,9236